Hovedside
METAR-TAF:

METAR-TAF

Lufthavner :

Sankt Michel, Finland

Sankt Michel lufthavn

breddegrad: 61-44N, lengdegrad: 027-18E, høyde over havet: 138 m

Gjeldene værobservasjon

Denne rapporten ble laget for 15 minutter siden, klokken 22:20 UTC
Vind 2 kt fra skiftende retning
Temperatur 14°C
Luftfuktighet 94%
Trykk 1012 hPa
Sikt 10 km eller mer
Brutte skyer i en høyde av 2000 ft
Overskyet i en høyde av 6100 ft

METAR: EFMI 242220Z AUTO VRB02KT 9999 BKN020 OVC061 14/13 Q1012

Tid: 01:35 (22:35 UTC)


TAF: fraværende

Værobservasjoner og værvarsel for over 4000 flyplasser (METAR- og TAF-rapporter).

Tilgjengelige stasjoner er representert av de røde og gule prikkene på kartet.

Hold musepekeren over prikken for å se navnet på stasjonen.

Klikk så for å se værobservasjoner og -varsler.

For å forandre kartet kan du klikke på den grønne knappen med svart kryss for å zoome inn, på den grønne knappen med strek for å zoome ut, eller på de grønne pilene for å se tilstøtende kart.


METAR-TAF: